» Metar & Tafor

23 Maret 2020
METAR
Pukul :
Isi :
SAID34 WAGI 290630
METAR WAGI 290630Z 10004KT 9999 SCT012 32/23 Q1010 NOSIG=

10 Juni 2019
TAFOR
Pukul : 06 - 18 UTC
Isi :

TAF WAGI 290500Z 2906/2918 14006KT 9000 SCT012 BECMG 2910/2912 00000KT 6000=


Hal: << First | < Prev | 1 | Next > | Last >>